sensor_id;sensor_type;location;lat;lon;timestamp;P1;durP1;ratioP1;P2;durP2;ratioP2
54849;SDS011;47660;51.334;12.396;2023-05-29T00:00:59;6.60;;;3.08;;
54849;SDS011;47660;51.334;12.396;2023-05-29T00:03:25;5.18;;;3.03;;
54849;SDS011;47660;51.334;12.396;2023-05-29T00:05:50;4.55;;;3.17;;
54849;SDS011;47660;51.334;12.396;2023-05-29T00:08:16;6.85;;;3.45;;
54849;SDS011;47660;51.334;12.396;2023-05-29T00:10:41;7.00;;;3.72;;
54849;SDS011;47660;51.334;12.396;2023-05-29T00:13:06;5.00;;;3.63;;
54849;SDS011;47660;51.334;12.396;2023-05-29T00:15:32;6.15;;;3.47;;
54849;SDS011;47660;51.334;12.396;2023-05-29T00:18:00;5.68;;;3.00;;
54849;SDS011;47660;51.334;12.396;2023-05-29T00:20:28;6.40;;;3.25;;
54849;SDS011;47660;51.334;12.396;2023-05-29T00:22:59;6.13;;;3.83;;
54849;SDS011;47660;51.334;12.396;2023-05-29T00:25:34;5.38;;;3.45;;
54849;SDS011;47660;51.334;12.396;2023-05-29T00:28:00;7.15;;;3.72;;
54849;SDS011;47660;51.334;12.396;2023-05-29T00:30:26;8.05;;;3.40;;
54849;SDS011;47660;51.334;12.396;2023-05-29T00:32:51;7.78;;;3.35;;
54849;SDS011;47660;51.334;12.396;2023-05-29T00:35:22;5.65;;;3.08;;
54849;SDS011;47660;51.334;12.396;2023-05-29T00:37:47;3.92;;;3.10;;
54849;SDS011;47660;51.334;12.396;2023-05-29T00:40:13;6.65;;;3.08;;
54849;SDS011;47660;51.334;12.396;2023-05-29T00:42:38;5.60;;;3.05;;
54849;SDS011;47660;51.334;12.396;2023-05-29T00:45:04;7.45;;;3.42;;
54849;SDS011;47660;51.334;12.396;2023-05-29T00:47:33;5.22;;;2.78;;
54849;SDS011;47660;51.334;12.396;2023-05-29T00:50:01;4.00;;;2.67;;
54849;SDS011;47660;51.334;12.396;2023-05-29T00:52:26;4.30;;;2.75;;
54849;SDS011;47660;51.334;12.396;2023-05-29T00:54:52;4.07;;;2.72;;
54849;SDS011;47660;51.334;12.396;2023-05-29T00:57:18;3.92;;;2.58;;
54849;SDS011;47660;51.334;12.396;2023-05-29T00:59:44;3.60;;;2.60;;
54849;SDS011;47660;51.334;12.396;2023-05-29T01:02:12;4.13;;;2.72;;
54849;SDS011;47660;51.334;12.396;2023-05-29T01:04:39;4.18;;;2.17;;
54849;SDS011;47660;51.334;12.396;2023-05-29T01:07:05;4.57;;;2.60;;
54849;SDS011;47660;51.334;12.396;2023-05-29T01:09:31;6.93;;;2.70;;
54849;SDS011;47660;51.334;12.396;2023-05-29T01:28:37;6.47;;;2.05;;
54849;SDS011;47660;51.334;12.396;2023-05-29T01:31:07;4.47;;;2.78;;
54849;SDS011;47660;51.334;12.396;2023-05-29T01:33:38;5.20;;;2.10;;
54849;SDS011;47660;51.334;12.396;2023-05-29T01:36:08;3.45;;;1.88;;
54849;SDS011;47660;51.334;12.396;2023-05-29T01:38:34;7.13;;;2.33;;
54849;SDS011;47660;51.334;12.396;2023-05-29T01:41:00;3.53;;;2.13;;
54849;SDS011;47660;51.334;12.396;2023-05-29T01:43:26;4.85;;;2.10;;
54849;SDS011;47660;51.334;12.396;2023-05-29T01:45:52;3.88;;;2.05;;
54849;SDS011;47660;51.334;12.396;2023-05-29T01:48:18;2.85;;;1.95;;
54849;SDS011;47660;51.334;12.396;2023-05-29T01:50:44;3.33;;;2.10;;
54849;SDS011;47660;51.334;12.396;2023-05-29T01:53:13;5.05;;;2.35;;
54849;SDS011;47660;51.334;12.396;2023-05-29T01:55:44;2.72;;;2.00;;
54849;SDS011;47660;51.334;12.396;2023-05-29T01:58:12;6.55;;;2.63;;
54849;SDS011;47660;51.334;12.396;2023-05-29T02:00:39;4.95;;;2.35;;
54849;SDS011;47660;51.334;12.396;2023-05-29T02:03:05;5.05;;;2.63;;
54849;SDS011;47660;51.334;12.396;2023-05-29T02:05:30;4.53;;;2.10;;
54849;SDS011;47660;51.334;12.396;2023-05-29T02:07:56;3.92;;;2.05;;
54849;SDS011;47660;51.334;12.396;2023-05-29T02:10:21;5.40;;;1.92;;
54849;SDS011;47660;51.334;12.396;2023-05-29T02:12:46;2.85;;;1.80;;
54849;SDS011;47660;51.334;12.396;2023-05-29T02:15:12;3.08;;;2.10;;
54849;SDS011;47660;51.334;12.396;2023-05-29T02:17:37;2.05;;;1.50;;
54849;SDS011;47660;51.334;12.396;2023-05-29T02:20:03;3.75;;;1.80;;
54849;SDS011;47660;51.334;12.396;2023-05-29T02:22:29;4.70;;;2.00;;
54849;SDS011;47660;51.334;12.396;2023-05-29T02:24:55;3.60;;;2.55;;
54849;SDS011;47660;51.334;12.396;2023-05-29T02:27:22;3.85;;;2.30;;
54849;SDS011;47660;51.334;12.396;2023-05-29T02:29:48;4.32;;;2.22;;
54849;SDS011;47660;51.334;12.396;2023-05-29T02:32:13;4.03;;;2.03;;
54849;SDS011;47660;51.334;12.396;2023-05-29T02:34:39;6.47;;;2.40;;
54849;SDS011;47660;51.334;12.396;2023-05-29T02:37:04;6.35;;;2.05;;
54849;SDS011;47660;51.334;12.396;2023-05-29T02:39:30;3.95;;;2.40;;
54849;SDS011;47660;51.334;12.396;2023-05-29T02:41:56;3.20;;;2.10;;
54849;SDS011;47660;51.334;12.396;2023-05-29T02:44:23;5.53;;;2.00;;
54849;SDS011;47660;51.334;12.396;2023-05-29T02:46:51;3.47;;;2.25;;
54849;SDS011;47660;51.334;12.396;2023-05-29T02:49:17;4.63;;;2.15;;
54849;SDS011;47660;51.334;12.396;2023-05-29T02:51:42;4.40;;;2.40;;
54849;SDS011;47660;51.334;12.396;2023-05-29T02:54:07;4.30;;;2.20;;
54849;SDS011;47660;51.334;12.396;2023-05-29T02:56:33;4.18;;;2.60;;
54849;SDS011;47660;51.334;12.396;2023-05-29T02:59:01;3.00;;;2.30;;
54849;SDS011;47660;51.334;12.396;2023-05-29T03:01:27;3.67;;;2.38;;
54849;SDS011;47660;51.334;12.396;2023-05-29T03:03:52;3.92;;;2.60;;
54849;SDS011;47660;51.334;12.396;2023-05-29T03:06:18;4.43;;;2.55;;
54849;SDS011;47660;51.334;12.396;2023-05-29T03:08:43;4.78;;;2.63;;
54849;SDS011;47660;51.334;12.396;2023-05-29T03:11:11;6.72;;;2.58;;
54849;SDS011;47660;51.334;12.396;2023-05-29T03:13:40;4.60;;;2.55;;
54849;SDS011;47660;51.334;12.396;2023-05-29T03:16:06;3.72;;;2.15;;
54849;SDS011;47660;51.334;12.396;2023-05-29T03:18:33;8.45;;;3.13;;
54849;SDS011;47660;51.334;12.396;2023-05-29T03:21:01;5.88;;;2.38;;
54849;SDS011;47660;51.334;12.396;2023-05-29T03:23:27;3.53;;;2.38;;
54849;SDS011;47660;51.334;12.396;2023-05-29T03:25:53;4.82;;;2.20;;
54849;SDS011;47660;51.334;12.396;2023-05-29T03:28:21;4.10;;;2.53;;
54849;SDS011;47660;51.334;12.396;2023-05-29T03:30:49;3.25;;;2.00;;
54849;SDS011;47660;51.334;12.396;2023-05-29T03:33:18;4.70;;;2.53;;
54849;SDS011;47660;51.334;12.396;2023-05-29T03:35:43;5.10;;;2.10;;
54849;SDS011;47660;51.334;12.396;2023-05-29T03:38:11;2.97;;;2.17;;
54849;SDS011;47660;51.334;12.396;2023-05-29T03:40:36;4.13;;;2.58;;
54849;SDS011;47660;51.334;12.396;2023-05-29T03:43:01;3.30;;;2.47;;
54849;SDS011;47660;51.334;12.396;2023-05-29T03:45:27;12.30;;;5.07;;
54849;SDS011;47660;51.334;12.396;2023-05-29T03:47:52;10.43;;;5.90;;
54849;SDS011;47660;51.334;12.396;2023-05-29T03:50:18;8.57;;;4.47;;
54849;SDS011;47660;51.334;12.396;2023-05-29T03:52:43;8.80;;;4.57;;
54849;SDS011;47660;51.334;12.396;2023-05-29T03:55:09;6.97;;;3.85;;
54849;SDS011;47660;51.334;12.396;2023-05-29T03:57:39;8.00;;;3.40;;
54849;SDS011;47660;51.334;12.396;2023-05-29T04:00:09;6.57;;;3.17;;
54849;SDS011;47660;51.334;12.396;2023-05-29T04:02:39;7.97;;;3.30;;
54849;SDS011;47660;51.334;12.396;2023-05-29T04:05:06;8.05;;;4.03;;
54849;SDS011;47660;51.334;12.396;2023-05-29T04:07:35;10.90;;;5.40;;
54849;SDS011;47660;51.334;12.396;2023-05-29T04:10:04;19.23;;;8.65;;
54849;SDS011;47660;51.334;12.396;2023-05-29T04:12:30;31.80;;;17.05;;
54849;SDS011;47660;51.334;12.396;2023-05-29T04:14:56;16.17;;;8.05;;
54849;SDS011;47660;51.334;12.396;2023-05-29T04:17:22;12.05;;;6.47;;
54849;SDS011;47660;51.334;12.396;2023-05-29T04:19:50;10.13;;;4.20;;
54849;SDS011;47660;51.334;12.396;2023-05-29T04:22:15;8.02;;;4.78;;
54849;SDS011;47660;51.334;12.396;2023-05-29T04:24:41;6.78;;;2.80;;
54849;SDS011;47660;51.334;12.396;2023-05-29T04:27:09;5.53;;;2.97;;
54849;SDS011;47660;51.334;12.396;2023-05-29T04:29:41;3.67;;;2.45;;
54849;SDS011;47660;51.334;12.396;2023-05-29T04:32:07;4.93;;;2.33;;
54849;SDS011;47660;51.334;12.396;2023-05-29T04:34:34;4.72;;;2.28;;
54849;SDS011;47660;51.334;12.396;2023-05-29T04:37:05;8.90;;;2.55;;
54849;SDS011;47660;51.334;12.396;2023-05-29T04:39:31;3.72;;;2.85;;
54849;SDS011;47660;51.334;12.396;2023-05-29T04:41:59;4.65;;;2.35;;
54849;SDS011;47660;51.334;12.396;2023-05-29T04:44:27;4.55;;;2.50;;
54849;SDS011;47660;51.334;12.396;2023-05-29T04:46:55;6.88;;;2.40;;
54849;SDS011;47660;51.334;12.396;2023-05-29T04:49:22;3.58;;;2.05;;
54849;SDS011;47660;51.334;12.396;2023-05-29T04:51:47;5.10;;;2.55;;
54849;SDS011;47660;51.334;12.396;2023-05-29T04:54:13;4.15;;;2.35;;
54849;SDS011;47660;51.334;12.396;2023-05-29T04:56:38;3.42;;;2.40;;
54849;SDS011;47660;51.334;12.396;2023-05-29T04:59:07;4.35;;;2.20;;
54849;SDS011;47660;51.334;12.396;2023-05-29T05:01:38;5.28;;;2.60;;
54849;SDS011;47660;51.334;12.396;2023-05-29T05:04:04;4.45;;;2.22;;
54849;SDS011;47660;51.334;12.396;2023-05-29T05:06:32;6.30;;;2.67;;
54849;SDS011;47660;51.334;12.396;2023-05-29T05:08:57;7.35;;;2.72;;
54849;SDS011;47660;51.334;12.396;2023-05-29T05:11:23;8.48;;;2.70;;
54849;SDS011;47660;51.334;12.396;2023-05-29T05:13:49;6.82;;;2.78;;
54849;SDS011;47660;51.334;12.396;2023-05-29T05:16:17;6.85;;;2.25;;
54849;SDS011;47660;51.334;12.396;2023-05-29T05:18:45;5.03;;;2.28;;
54849;SDS011;47660;51.334;12.396;2023-05-29T05:21:13;5.97;;;2.20;;
54849;SDS011;47660;51.334;12.396;2023-05-29T05:23:38;6.47;;;2.58;;
54849;SDS011;47660;51.334;12.396;2023-05-29T05:26:03;6.63;;;2.45;;
54849;SDS011;47660;51.334;12.396;2023-05-29T05:28:29;5.57;;;2.10;;
54849;SDS011;47660;51.334;12.396;2023-05-29T05:30:55;5.80;;;2.53;;
54849;SDS011;47660;51.334;12.396;2023-05-29T05:33:23;4.93;;;2.03;;
54849;SDS011;47660;51.334;12.396;2023-05-29T05:35:50;4.63;;;2.10;;
54849;SDS011;47660;51.334;12.396;2023-05-29T05:38:16;4.00;;;2.15;;
54849;SDS011;47660;51.334;12.396;2023-05-29T05:40:43;3.55;;;2.28;;
54849;SDS011;47660;51.334;12.396;2023-05-29T05:43:10;7.03;;;2.50;;
54849;SDS011;47660;51.334;12.396;2023-05-29T05:45:35;5.20;;;2.42;;
54849;SDS011;47660;51.334;12.396;2023-05-29T05:48:07;3.70;;;2.30;;
54849;SDS011;47660;51.334;12.396;2023-05-29T05:50:32;3.85;;;2.05;;
54849;SDS011;47660;51.334;12.396;2023-05-29T05:52:58;7.90;;;2.97;;
54849;SDS011;47660;51.334;12.396;2023-05-29T05:55:23;6.55;;;2.13;;
54849;SDS011;47660;51.334;12.396;2023-05-29T05:57:52;5.97;;;2.53;;
54849;SDS011;47660;51.334;12.396;2023-05-29T06:00:22;5.25;;;1.90;;
54849;SDS011;47660;51.334;12.396;2023-05-29T06:02:48;5.57;;;2.30;;
54849;SDS011;47660;51.334;12.396;2023-05-29T06:05:13;4.20;;;2.47;;
54849;SDS011;47660;51.334;12.396;2023-05-29T06:07:39;3.67;;;1.90;;
54849;SDS011;47660;51.334;12.396;2023-05-29T06:10:05;7.68;;;2.22;;
54849;SDS011;47660;51.334;12.396;2023-05-29T06:12:33;5.00;;;2.15;;
54849;SDS011;47660;51.334;12.396;2023-05-29T06:14:59;5.75;;;2.47;;
54849;SDS011;47660;51.334;12.396;2023-05-29T06:17:25;6.53;;;2.45;;
54849;SDS011;47660;51.334;12.396;2023-05-29T06:19:50;4.15;;;2.35;;
54849;SDS011;47660;51.334;12.396;2023-05-29T06:22:17;5.22;;;2.28;;
54849;SDS011;47660;51.334;12.396;2023-05-29T06:24:43;4.97;;;2.47;;
54849;SDS011;47660;51.334;12.396;2023-05-29T06:27:09;6.70;;;2.40;;
54849;SDS011;47660;51.334;12.396;2023-05-29T06:29:34;5.57;;;2.25;;
54849;SDS011;47660;51.334;12.396;2023-05-29T06:32:00;3.97;;;2.10;;
54849;SDS011;47660;51.334;12.396;2023-05-29T06:34:25;4.53;;;2.50;;
54849;SDS011;47660;51.334;12.396;2023-05-29T06:36:53;7.22;;;3.00;;
54849;SDS011;47660;51.334;12.396;2023-05-29T06:39:21;5.55;;;2.67;;
54849;SDS011;47660;51.334;12.396;2023-05-29T06:41:49;5.32;;;2.58;;
54849;SDS011;47660;51.334;12.396;2023-05-29T06:44:19;5.90;;;2.63;;
54849;SDS011;47660;51.334;12.396;2023-05-29T06:46:44;4.28;;;2.10;;
54849;SDS011;47660;51.334;12.396;2023-05-29T06:49:10;8.88;;;3.00;;
54849;SDS011;47660;51.334;12.396;2023-05-29T06:51:35;5.20;;;2.35;;
54849;SDS011;47660;51.334;12.396;2023-05-29T06:54:01;8.38;;;2.35;;
54849;SDS011;47660;51.334;12.396;2023-05-29T06:56:26;4.15;;;2.33;;
54849;SDS011;47660;51.334;12.396;2023-05-29T06:58:55;5.07;;;2.05;;
54849;SDS011;47660;51.334;12.396;2023-05-29T07:01:23;3.08;;;2.17;;
54849;SDS011;47660;51.334;12.396;2023-05-29T07:03:52;9.45;;;2.50;;
54849;SDS011;47660;51.334;12.396;2023-05-29T07:06:18;8.10;;;2.40;;
54849;SDS011;47660;51.334;12.396;2023-05-29T07:08:44;6.00;;;2.00;;
54849;SDS011;47660;51.334;12.396;2023-05-29T07:11:10;4.22;;;2.15;;
54849;SDS011;47660;51.334;12.396;2023-05-29T07:13:38;6.50;;;2.33;;
54849;SDS011;47660;51.334;12.396;2023-05-29T07:16:03;5.25;;;2.65;;
54849;SDS011;47660;51.334;12.396;2023-05-29T07:18:32;4.50;;;2.40;;
54849;SDS011;47660;51.334;12.396;2023-05-29T07:20:59;6.43;;;2.78;;
54849;SDS011;47660;51.334;12.396;2023-05-29T07:23:25;6.15;;;2.60;;
54849;SDS011;47660;51.334;12.396;2023-05-29T07:25:51;4.90;;;2.13;;
54849;SDS011;47660;51.334;12.396;2023-05-29T07:28:16;7.18;;;2.45;;
54849;SDS011;47660;51.334;12.396;2023-05-29T07:30:42;5.85;;;2.65;;
54849;SDS011;47660;51.334;12.396;2023-05-29T07:33:07;4.88;;;2.60;;
54849;SDS011;47660;51.334;12.396;2023-05-29T07:35:32;6.28;;;2.42;;
54849;SDS011;47660;51.334;12.396;2023-05-29T07:38:01;4.65;;;2.50;;
54849;SDS011;47660;51.334;12.396;2023-05-29T07:40:26;4.82;;;2.33;;
54849;SDS011;47660;51.334;12.396;2023-05-29T07:42:52;6.57;;;2.33;;
54849;SDS011;47660;51.334;12.396;2023-05-29T07:45:17;5.20;;;2.00;;
54849;SDS011;47660;51.334;12.396;2023-05-29T07:47:43;6.55;;;2.67;;
54849;SDS011;47660;51.334;12.396;2023-05-29T07:50:08;6.90;;;2.35;;
54849;SDS011;47660;51.334;12.396;2023-05-29T07:52:35;6.70;;;2.40;;
54849;SDS011;47660;51.334;12.396;2023-05-29T07:55:01;3.55;;;2.10;;
54849;SDS011;47660;51.334;12.396;2023-05-29T07:57:27;6.78;;;2.38;;
54849;SDS011;47660;51.334;12.396;2023-05-29T07:59:53;4.22;;;2.90;;
54849;SDS011;47660;51.334;12.396;2023-05-29T08:02:19;7.63;;;2.17;;
54849;SDS011;47660;51.334;12.396;2023-05-29T08:04:44;3.22;;;2.08;;
54849;SDS011;47660;51.334;12.396;2023-05-29T08:07:12;7.28;;;2.22;;
54849;SDS011;47660;51.334;12.396;2023-05-29T08:09:37;3.75;;;1.80;;
54849;SDS011;47660;51.334;12.396;2023-05-29T08:12:03;6.43;;;2.65;;
54849;SDS011;47660;51.334;12.396;2023-05-29T08:14:32;3.17;;;1.70;;
54849;SDS011;47660;51.334;12.396;2023-05-29T08:16:57;4.25;;;2.38;;
54849;SDS011;47660;51.334;12.396;2023-05-29T08:19:23;3.67;;;1.80;;
54849;SDS011;47660;51.334;12.396;2023-05-29T08:21:51;3.97;;;1.88;;
54849;SDS011;47660;51.334;12.396;2023-05-29T08:24:17;3.55;;;1.75;;
54849;SDS011;47660;51.334;12.396;2023-05-29T08:26:43;6.28;;;2.10;;
54849;SDS011;47660;51.334;12.396;2023-05-29T08:29:08;3.58;;;1.83;;
54849;SDS011;47660;51.334;12.396;2023-05-29T08:31:37;3.97;;;1.95;;
54849;SDS011;47660;51.334;12.396;2023-05-29T08:34:02;3.60;;;1.90;;
54849;SDS011;47660;51.334;12.396;2023-05-29T08:36:28;6.78;;;2.20;;
54849;SDS011;47660;51.334;12.396;2023-05-29T08:38:53;3.47;;;1.50;;
54849;SDS011;47660;51.334;12.396;2023-05-29T08:41:25;4.57;;;1.60;;
54849;SDS011;47660;51.334;12.396;2023-05-29T08:43:59;5.32;;;2.60;;
54849;SDS011;47660;51.334;12.396;2023-05-29T08:46:28;8.73;;;3.75;;
54849;SDS011;47660;51.334;12.396;2023-05-29T08:48:54;3.67;;;1.65;;
54849;SDS011;47660;51.334;12.396;2023-05-29T08:51:26;3.15;;;1.55;;
54849;SDS011;47660;51.334;12.396;2023-05-29T08:53:56;3.75;;;1.88;;
54849;SDS011;47660;51.334;12.396;2023-05-29T08:56:30;4.90;;;2.00;;
54849;SDS011;47660;51.334;12.396;2023-05-29T08:58:58;3.55;;;1.95;;
54849;SDS011;47660;51.334;12.396;2023-05-29T09:01:28;4.90;;;2.10;;
54849;SDS011;47660;51.334;12.396;2023-05-29T09:03:55;5.55;;;2.05;;
54849;SDS011;47660;51.334;12.396;2023-05-29T09:06:21;3.25;;;1.90;;
54849;SDS011;47660;51.334;12.396;2023-05-29T09:08:48;4.60;;;1.60;;
54849;SDS011;47660;51.334;12.396;2023-05-29T09:11:13;3.88;;;1.60;;
54849;SDS011;47660;51.334;12.396;2023-05-29T09:13:39;8.15;;;1.90;;
54849;SDS011;47660;51.334;12.396;2023-05-29T09:16:07;16.55;;;4.28;;
54849;SDS011;47660;51.334;12.396;2023-05-29T09:18:36;8.35;;;2.63;;
54849;SDS011;47660;51.334;12.396;2023-05-29T09:21:06;3.92;;;1.95;;
54849;SDS011;47660;51.334;12.396;2023-05-29T09:23:35;7.72;;;2.35;;
54849;SDS011;47660;51.334;12.396;2023-05-29T09:26:01;4.72;;;1.80;;
54849;SDS011;47660;51.334;12.396;2023-05-29T09:28:28;6.68;;;2.30;;
54849;SDS011;47660;51.334;12.396;2023-05-29T09:30:56;2.58;;;1.90;;
54849;SDS011;47660;51.334;12.396;2023-05-29T09:33:22;3.25;;;1.55;;
54849;SDS011;47660;51.334;12.396;2023-05-29T09:35:50;2.22;;;1.60;;
54849;SDS011;47660;51.334;12.396;2023-05-29T09:38:18;4.75;;;2.42;;
54849;SDS011;47660;51.334;12.396;2023-05-29T09:40:45;4.28;;;2.42;;
54849;SDS011;47660;51.334;12.396;2023-05-29T09:45:48;7.95;;;3.92;;
54849;SDS011;47660;51.334;12.396;2023-05-29T09:48:18;5.07;;;1.73;;
54849;SDS011;47660;51.334;12.396;2023-05-29T09:50:48;8.90;;;2.63;;
54849;SDS011;47660;51.334;12.396;2023-05-29T09:53:21;4.88;;;2.00;;
54849;SDS011;47660;51.334;12.396;2023-05-29T09:55:49;3.92;;;1.90;;
54849;SDS011;47660;51.334;12.396;2023-05-29T09:58:19;2.85;;;1.70;;
54849;SDS011;47660;51.334;12.396;2023-05-29T10:00:46;5.18;;;2.00;;
54849;SDS011;47660;51.334;12.396;2023-05-29T10:03:15;3.95;;;1.80;;
54849;SDS011;47660;51.334;12.396;2023-05-29T10:05:42;6.90;;;1.80;;
54849;SDS011;47660;51.334;12.396;2023-05-29T10:08:11;2.63;;;1.60;;
54849;SDS011;47660;51.334;12.396;2023-05-29T10:10:39;2.88;;;1.70;;
54849;SDS011;47660;51.334;12.396;2023-05-29T10:13:11;4.00;;;2.00;;
54849;SDS011;47660;51.334;12.396;2023-05-29T10:15:39;4.32;;;1.60;;
54849;SDS011;47660;51.334;12.396;2023-05-29T10:18:50;4.45;;;1.80;;
54849;SDS011;47660;51.334;12.396;2023-05-29T10:21:21;3.83;;;2.00;;
54849;SDS011;47660;51.334;12.396;2023-05-29T10:23:50;3.40;;;1.63;;
54849;SDS011;47660;51.334;12.396;2023-05-29T10:26:19;3.83;;;1.90;;
54849;SDS011;47660;51.334;12.396;2023-05-29T10:31:59;4.43;;;1.73;;
54849;SDS011;47660;51.334;12.396;2023-05-29T10:40:13;2.45;;;1.55;;
54849;SDS011;47660;51.334;12.396;2023-05-29T10:45:04;6.45;;;1.67;;
54849;SDS011;47660;51.334;12.396;2023-05-29T10:47:34;3.50;;;1.50;;
54849;SDS011;47660;51.334;12.396;2023-05-29T10:50:02;5.95;;;2.28;;
54849;SDS011;47660;51.334;12.396;2023-05-29T10:52:31;6.85;;;2.58;;
54849;SDS011;47660;51.334;12.396;2023-05-29T10:54:57;5.18;;;1.58;;
54849;SDS011;47660;51.334;12.396;2023-05-29T10:57:23;4.38;;;1.65;;
54849;SDS011;47660;51.334;12.396;2023-05-29T10:59:58;3.17;;;1.95;;
54849;SDS011;47660;51.334;12.396;2023-05-29T11:02:25;3.58;;;1.50;;
54849;SDS011;47660;51.334;12.396;2023-05-29T11:16:42;4.93;;;1.65;;
54849;SDS011;47660;51.334;12.396;2023-05-29T11:18:54;4.40;;;1.83;;
54849;SDS011;47660;51.334;12.396;2023-05-29T11:24:00;3.70;;;1.53;;
54849;SDS011;47660;51.334;12.396;2023-05-29T11:26:32;2.95;;;1.50;;
54849;SDS011;47660;51.334;12.396;2023-05-29T11:29:02;3.17;;;1.88;;
54849;SDS011;47660;51.334;12.396;2023-05-29T11:31:35;5.13;;;2.10;;
54849;SDS011;47660;51.334;12.396;2023-05-29T11:34:05;4.07;;;2.10;;
54849;SDS011;47660;51.334;12.396;2023-05-29T11:36:41;4.25;;;1.65;;
54849;SDS011;47660;51.334;12.396;2023-05-29T11:39:09;3.03;;;1.70;;
54849;SDS011;47660;51.334;12.396;2023-05-29T11:41:34;3.33;;;1.70;;
54849;SDS011;47660;51.334;12.396;2023-05-29T11:44:04;2.25;;;1.52;;
54849;SDS011;47660;51.334;12.396;2023-05-29T11:46:31;3.65;;;1.80;;
54849;SDS011;47660;51.334;12.396;2023-05-29T11:48:57;2.88;;;1.77;;
54849;SDS011;47660;51.334;12.396;2023-05-29T11:51:26;2.80;;;1.60;;
54849;SDS011;47660;51.334;12.396;2023-05-29T11:53:51;4.53;;;1.75;;
54849;SDS011;47660;51.334;12.396;2023-05-29T11:56:32;2.47;;;1.52;;
54849;SDS011;47660;51.334;12.396;2023-05-29T11:59:00;2.80;;;1.48;;
54849;SDS011;47660;51.334;12.396;2023-05-29T12:01:29;3.33;;;1.95;;
54849;SDS011;47660;51.334;12.396;2023-05-29T12:04:00;3.40;;;2.00;;
54849;SDS011;47660;51.334;12.396;2023-05-29T12:06:32;4.25;;;1.90;;
54849;SDS011;47660;51.334;12.396;2023-05-29T12:08:58;7.15;;;1.70;;
54849;SDS011;47660;51.334;12.396;2023-05-29T12:11:24;5.30;;;1.60;;
54849;SDS011;47660;51.334;12.396;2023-05-29T12:13:55;2.97;;;2.00;;
54849;SDS011;47660;51.334;12.396;2023-05-29T12:16:22;3.08;;;1.45;;
54849;SDS011;47660;51.334;12.396;2023-05-29T12:18:51;2.92;;;1.63;;
54849;SDS011;47660;51.334;12.396;2023-05-29T12:21:17;6.38;;;2.20;;
54849;SDS011;47660;51.334;12.396;2023-05-29T12:23:42;2.65;;;1.83;;
54849;SDS011;47660;51.334;12.396;2023-05-29T12:26:11;5.32;;;1.75;;
54849;SDS011;47660;51.334;12.396;2023-05-29T12:28:42;2.22;;;1.48;;
54849;SDS011;47660;51.334;12.396;2023-05-29T12:31:09;5.40;;;1.95;;
54849;SDS011;47660;51.334;12.396;2023-05-29T12:33:36;4.20;;;1.80;;
54849;SDS011;47660;51.334;12.396;2023-05-29T12:36:08;3.85;;;1.80;;
54849;SDS011;47660;51.334;12.396;2023-05-29T12:38:48;2.65;;;1.80;;
54849;SDS011;47660;51.334;12.396;2023-05-29T12:41:32;5.53;;;1.70;;
54849;SDS011;47660;51.334;12.396;2023-05-29T12:44:00;2.45;;;1.77;;
54849;SDS011;47660;51.334;12.396;2023-05-29T12:46:27;3.63;;;1.90;;
54849;SDS011;47660;51.334;12.396;2023-05-29T12:48:55;3.72;;;1.98;;
54849;SDS011;47660;51.334;12.396;2023-05-29T12:51:24;3.25;;;1.75;;
54849;SDS011;47660;51.334;12.396;2023-05-29T12:53:50;3.75;;;1.83;;
54849;SDS011;47660;51.334;12.396;2023-05-29T12:56:16;7.50;;;2.83;;
54849;SDS011;47660;51.334;12.396;2023-05-29T12:58:44;2.80;;;1.80;;
54849;SDS011;47660;51.334;12.396;2023-05-29T13:01:15;3.47;;;2.15;;
54849;SDS011;47660;51.334;12.396;2023-05-29T13:03:43;3.35;;;1.83;;
54849;SDS011;47660;51.334;12.396;2023-05-29T13:06:12;2.95;;;1.80;;
54849;SDS011;47660;51.334;12.396;2023-05-29T13:08:37;2.22;;;1.65;;
54849;SDS011;47660;51.334;12.396;2023-05-29T13:11:03;3.38;;;1.80;;
54849;SDS011;47660;51.334;12.396;2023-05-29T13:13:30;3.65;;;1.77;;
54849;SDS011;47660;51.334;12.396;2023-05-29T13:15:56;2.20;;;1.60;;
54849;SDS011;47660;51.334;12.396;2023-05-29T13:18:21;2.70;;;1.95;;
54849;SDS011;47660;51.334;12.396;2023-05-29T13:20:47;3.72;;;1.60;;
54849;SDS011;47660;51.334;12.396;2023-05-29T13:23:15;4.72;;;2.13;;
54849;SDS011;47660;51.334;12.396;2023-05-29T13:25:40;2.25;;;1.73;;
54849;SDS011;47660;51.334;12.396;2023-05-29T13:28:06;2.63;;;1.75;;
54849;SDS011;47660;51.334;12.396;2023-05-29T13:30:34;3.72;;;1.80;;
54849;SDS011;47660;51.334;12.396;2023-05-29T13:32:59;3.08;;;1.52;;
54849;SDS011;47660;51.334;12.396;2023-05-29T13:35:25;3.05;;;1.60;;
54849;SDS011;47660;51.334;12.396;2023-05-29T13:37:51;3.03;;;1.88;;
54849;SDS011;47660;51.334;12.396;2023-05-29T13:40:16;3.15;;;1.58;;
54849;SDS011;47660;51.334;12.396;2023-05-29T13:42:42;3.70;;;2.05;;
54849;SDS011;47660;51.334;12.396;2023-05-29T13:45:07;4.35;;;1.70;;
54849;SDS011;47660;51.334;12.396;2023-05-29T13:47:34;4.82;;;2.53;;
54849;SDS011;47660;51.334;12.396;2023-05-29T13:50:03;2.33;;;1.80;;
54849;SDS011;47660;51.334;12.396;2023-05-29T13:52:28;2.85;;;1.83;;
54849;SDS011;47660;51.334;12.396;2023-05-29T13:54:54;1.98;;;1.60;;
54849;SDS011;47660;51.334;12.396;2023-05-29T13:57:20;4.40;;;1.73;;
54849;SDS011;47660;51.334;12.396;2023-05-29T13:59:45;1.75;;;1.40;;
54849;SDS011;47660;51.334;12.396;2023-05-29T14:02:16;3.13;;;1.67;;
54849;SDS011;47660;51.334;12.396;2023-05-29T14:04:41;2.75;;;1.77;;
54849;SDS011;47660;51.334;12.396;2023-05-29T14:07:09;3.45;;;1.70;;
54849;SDS011;47660;51.334;12.396;2023-05-29T14:09:37;4.50;;;2.03;;
54849;SDS011;47660;51.334;12.396;2023-05-29T14:12:02;2.50;;;1.65;;
54849;SDS011;47660;51.334;12.396;2023-05-29T14:14:28;2.22;;;1.50;;
54849;SDS011;47660;51.334;12.396;2023-05-29T14:16:53;2.47;;;1.67;;
54849;SDS011;47660;51.334;12.396;2023-05-29T14:19:19;2.50;;;1.67;;
54849;SDS011;47660;51.334;12.396;2023-05-29T14:21:45;2.40;;;1.60;;
54849;SDS011;47660;51.334;12.396;2023-05-29T14:24:11;2.47;;;1.65;;
54849;SDS011;47660;51.334;12.396;2023-05-29T14:26:40;3.05;;;1.70;;
54849;SDS011;47660;51.334;12.396;2023-05-29T14:29:08;2.35;;;1.60;;
54849;SDS011;47660;51.334;12.396;2023-05-29T14:31:33;4.00;;;1.83;;
54849;SDS011;47660;51.334;12.396;2023-05-29T14:33:58;4.43;;;1.70;;
54849;SDS011;47660;51.334;12.396;2023-05-29T14:36:26;2.92;;;1.70;;
54849;SDS011;47660;51.334;12.396;2023-05-29T14:38:52;4.05;;;1.85;;
54849;SDS011;47660;51.334;12.396;2023-05-29T14:41:20;3.15;;;1.70;;
54849;SDS011;47660;51.334;12.396;2023-05-29T14:43:52;4.57;;;2.03;;
54849;SDS011;47660;51.334;12.396;2023-05-29T14:46:23;2.58;;;1.60;;
54849;SDS011;47660;51.334;12.396;2023-05-29T14:48:53;3.00;;;1.77;;
54849;SDS011;47660;51.334;12.396;2023-05-29T14:51:19;2.58;;;1.80;;
54849;SDS011;47660;51.334;12.396;2023-05-29T14:53:51;2.25;;;1.70;;
54849;SDS011;47660;51.334;12.396;2023-05-29T14:56:17;3.60;;;1.70;;
54849;SDS011;47660;51.334;12.396;2023-05-29T14:58:44;2.00;;;1.50;;
54849;SDS011;47660;51.334;12.396;2023-05-29T15:01:13;3.10;;;1.85;;
54849;SDS011;47660;51.334;12.396;2023-05-29T15:03:39;4.35;;;1.95;;
54849;SDS011;47660;51.334;12.396;2023-05-29T15:06:04;2.40;;;1.65;;
54849;SDS011;47660;51.334;12.396;2023-05-29T15:08:35;4.53;;;2.08;;
54849;SDS011;47660;51.334;12.396;2023-05-29T15:11:01;2.03;;;1.45;;
54849;SDS011;47660;51.334;12.396;2023-05-29T15:13:29;2.42;;;1.65;;
54849;SDS011;47660;51.334;12.396;2023-05-29T15:16:01;2.95;;;1.75;;
54849;SDS011;47660;51.334;12.396;2023-05-29T15:18:28;2.65;;;1.83;;